createdAt,value
2023-01-01T00:01:26.700Z,8.06
2023-01-01T00:03:57.564Z,8.10
2023-01-01T00:06:26.865Z,8.13
2023-01-01T00:09:13.554Z,8.14
2023-01-01T00:11:41.656Z,8.16
2023-01-01T00:14:12.519Z,8.18
2023-01-01T00:16:41.124Z,8.18
2023-01-01T00:19:09.541Z,8.16
2023-01-01T00:21:37.802Z,8.13
2023-01-01T00:24:07.239Z,8.09
2023-01-01T00:26:35.829Z,8.09
2023-01-01T00:29:05.639Z,8.11
2023-01-01T00:31:34.984Z,8.13
2023-01-01T00:34:03.510Z,8.16
2023-01-01T00:36:31.622Z,8.18
2023-01-01T00:39:02.631Z,8.20
2023-01-01T00:41:31.095Z,8.21
2023-01-01T00:43:59.430Z,8.22
2023-01-01T00:46:27.719Z,8.21
2023-01-01T00:48:55.974Z,8.16
2023-01-01T00:51:24.130Z,8.13
2023-01-01T00:53:52.341Z,8.10
2023-01-01T00:56:20.411Z,8.09
2023-01-01T00:59:01.515Z,8.06
2023-01-01T01:01:30.529Z,8.05
2023-01-01T01:03:58.929Z,8.06
2023-01-01T01:06:27.369Z,8.02
2023-01-01T01:08:55.977Z,8.03
2023-01-01T01:11:25.502Z,8.03
2023-01-01T01:13:56.924Z,8.05
2023-01-01T01:16:32.533Z,8.06
2023-01-01T01:19:04.418Z,8.08
2023-01-01T01:21:34.780Z,8.11
2023-01-01T01:24:04.083Z,8.14
2023-01-01T01:26:35.284Z,8.17
2023-01-01T01:29:04.405Z,8.17
2023-01-01T01:31:34.996Z,8.17
2023-01-01T01:34:03.799Z,8.17
2023-01-01T01:36:32.061Z,8.17
2023-01-01T01:39:00.389Z,8.14
2023-01-01T01:41:29.312Z,8.09
2023-01-01T01:44:07.625Z,8.07
2023-01-01T01:46:43.078Z,8.05
2023-01-01T01:49:31.202Z,8.07
2023-01-01T01:52:01.765Z,8.10
2023-01-01T01:54:30.535Z,8.09
2023-01-01T01:57:05.217Z,8.09
2023-01-01T01:59:38.458Z,8.11
2023-01-01T02:02:16.943Z,8.13
2023-01-01T02:04:45.611Z,8.15
2023-01-01T02:07:15.193Z,8.15
2023-01-01T02:09:43.867Z,8.14
2023-01-01T02:12:12.129Z,8.16
2023-01-01T02:14:40.290Z,8.17
2023-01-01T02:17:19.924Z,8.17
2023-01-01T02:20:17.630Z,8.18
2023-01-01T02:23:27.938Z,8.20
2023-01-01T02:26:19.234Z,8.22
2023-01-01T02:29:07.739Z,8.20
2023-01-01T02:31:44.568Z,8.18
2023-01-01T02:34:17.905Z,8.17
2023-01-01T02:36:53.193Z,8.15
2023-01-01T02:39:26.992Z,8.14
2023-01-01T02:41:57.898Z,8.14
2023-01-01T02:44:28.676Z,8.13
2023-01-01T02:46:56.942Z,8.13
2023-01-01T02:49:26.801Z,8.14
2023-01-01T02:52:26.447Z,8.15
2023-01-01T02:55:06.655Z,8.14
2023-01-01T02:58:24.189Z,8.12
2023-01-01T03:00:58.798Z,8.10
2023-01-01T03:04:13.232Z,8.04
2023-01-01T03:07:07.883Z,8.00
2023-01-01T03:09:48.484Z,8.00
2023-01-01T03:12:43.296Z,8.01
2023-01-01T03:15:46.659Z,8.03
2023-01-01T03:18:38.476Z,8.03
2023-01-01T03:21:08.160Z,8.04
2023-01-01T03:23:49.338Z,8.02
2023-01-01T03:26:21.231Z,7.98
2023-01-01T03:28:58.037Z,7.96
2023-01-01T03:31:26.995Z,7.92
2023-01-01T03:34:10.339Z,7.88
2023-01-01T03:36:44.101Z,7.89
2023-01-01T03:39:22.477Z,7.89
2023-01-01T03:42:01.484Z,7.90
2023-01-01T03:44:40.106Z,7.90
2023-01-01T03:47:08.220Z,7.90
2023-01-01T03:49:37.020Z,7.92
2023-01-01T03:52:32.298Z,7.93
2023-01-01T03:55:31.912Z,7.90
2023-01-01T03:58:15.149Z,7.86
2023-01-01T04:00:54.317Z,7.85
2023-01-01T04:03:27.479Z,7.81
2023-01-01T04:05:55.827Z,7.79
2023-01-01T04:08:24.403Z,7.79
2023-01-01T04:10:57.340Z,7.78
2023-01-01T04:13:25.407Z,7.76
2023-01-01T04:15:53.629Z,7.74
2023-01-01T04:18:21.860Z,7.74
2023-01-01T04:20:50.024Z,7.71
2023-01-01T04:23:18.163Z,7.69
2023-01-01T04:25:46.352Z,7.68
2023-01-01T04:28:14.615Z,7.65
2023-01-01T04:33:09.513Z,7.64
2023-01-01T04:35:38.487Z,7.64
2023-01-01T04:38:06.597Z,7.60
2023-01-01T04:40:34.701Z,7.59
2023-01-01T04:43:02.863Z,7.55
2023-01-01T04:45:31.432Z,7.55
2023-01-01T04:48:05.548Z,7.54
2023-01-01T04:50:33.804Z,7.54
2023-01-01T04:53:01.869Z,7.50
2023-01-01T04:55:29.931Z,7.49
2023-01-01T04:57:59.740Z,7.47
2023-01-01T05:00:27.966Z,7.45
2023-01-01T05:02:56.128Z,7.42
2023-01-01T05:05:24.465Z,7.43
2023-01-01T05:07:52.566Z,7.44
2023-01-01T05:10:20.769Z,7.45
2023-01-01T05:12:48.898Z,7.46
2023-01-01T05:15:17.026Z,7.45
2023-01-01T05:17:45.208Z,7.41
2023-01-01T05:20:13.343Z,7.38
2023-01-01T05:22:41.507Z,7.33
2023-01-01T05:25:09.860Z,7.28
2023-01-01T05:27:38.033Z,7.24
2023-01-01T05:30:07.637Z,7.24
2023-01-01T05:32:38.053Z,7.24
2023-01-01T05:35:06.521Z,7.25
2023-01-01T05:37:35.278Z,7.27
2023-01-01T05:40:03.772Z,7.25
2023-01-01T05:42:31.981Z,7.24
2023-01-01T05:45:00.143Z,7.23
2023-01-01T05:47:30.042Z,7.23
2023-01-01T05:49:58.387Z,7.21
2023-01-01T05:52:27.206Z,7.17
2023-01-01T05:54:55.512Z,7.10
2023-01-01T05:57:24.519Z,7.04
2023-01-01T05:59:52.674Z,6.99
2023-01-01T06:02:21.001Z,6.91
2023-01-01T06:04:49.287Z,6.86
2023-01-01T06:07:17.506Z,6.85
2023-01-01T06:09:45.689Z,6.83
2023-01-01T06:12:13.818Z,6.81
2023-01-01T06:14:41.921Z,6.81
2023-01-01T06:17:10.096Z,6.79
2023-01-01T06:19:38.221Z,6.78
2023-01-01T06:22:06.346Z,6.76
2023-01-01T06:24:38.901Z,6.72
2023-01-01T06:27:07.831Z,6.68
2023-01-01T06:29:35.978Z,6.64
2023-01-01T06:32:04.395Z,6.60
2023-01-01T06:34:32.597Z,6.58
2023-01-01T06:37:06.665Z,6.58
2023-01-01T06:39:35.699Z,6.57
2023-01-01T06:42:04.146Z,6.55
2023-01-01T06:44:32.436Z,6.53
2023-01-01T06:47:00.758Z,6.43
2023-01-01T06:49:29.016Z,6.34
2023-01-01T06:51:57.527Z,6.29
2023-01-01T06:54:25.645Z,6.24
2023-01-01T06:56:53.804Z,6.20
2023-01-01T06:59:22.027Z,6.17
2023-01-01T07:01:50.297Z,6.18
2023-01-01T07:04:18.655Z,6.20
2023-01-01T07:06:46.975Z,6.21
2023-01-01T07:09:15.067Z,6.18
2023-01-01T07:11:43.413Z,6.13
2023-01-01T07:14:11.562Z,6.09
2023-01-01T07:16:39.779Z,6.05
2023-01-01T07:19:08.050Z,6.01
2023-01-01T07:22:02.670Z,5.95
2023-01-01T07:24:32.011Z,5.95
2023-01-01T07:27:00.124Z,5.90
2023-01-01T07:29:28.323Z,5.88
2023-01-01T07:31:56.506Z,5.88
2023-01-01T07:34:24.617Z,5.93
2023-01-01T07:36:52.744Z,5.97
2023-01-01T07:39:20.900Z,6.01
2023-01-01T07:41:49.072Z,6.03
2023-01-01T07:44:17.199Z,6.05
2023-01-01T07:46:45.500Z,5.97
2023-01-01T07:49:13.718Z,5.95
2023-01-01T07:51:42.069Z,5.94
2023-01-01T07:54:10.320Z,5.91
2023-01-01T07:56:38.485Z,5.80
2023-01-01T07:59:06.959Z,5.74
2023-01-01T08:01:37.598Z,5.65
2023-01-01T08:04:05.964Z,5.67
2023-01-01T08:06:34.241Z,5.69
2023-01-01T08:09:02.715Z,5.76
2023-01-01T08:11:30.853Z,5.85
2023-01-01T08:13:58.937Z,5.90
2023-01-01T08:16:27.164Z,5.86
2023-01-01T08:18:55.447Z,5.72
2023-01-01T08:21:23.540Z,5.66
2023-01-01T08:23:51.645Z,5.63
2023-01-01T08:26:31.106Z,5.64
2023-01-01T08:28:59.747Z,5.72
2023-01-01T08:31:28.070Z,5.79
2023-01-01T08:33:56.379Z,5.87
2023-01-01T08:36:25.127Z,5.96
2023-01-01T08:38:53.600Z,6.05
2023-01-01T08:41:21.735Z,6.15
2023-01-01T08:43:49.979Z,6.27
2023-01-01T08:46:18.258Z,6.37
2023-01-01T08:48:46.489Z,6.44
2023-01-01T08:51:15.640Z,6.47
2023-01-01T08:53:50.392Z,6.49
2023-01-01T08:56:20.653Z,6.54
2023-01-01T08:58:49.673Z,6.53
2023-01-01T09:01:17.941Z,6.56
2023-01-01T09:03:46.218Z,6.63
2023-01-01T09:06:15.054Z,6.69
2023-01-01T09:08:43.616Z,6.70
2023-01-01T09:11:27.138Z,6.74
2023-01-01T09:13:55.461Z,6.74
2023-01-01T09:16:23.766Z,6.82
2023-01-01T09:18:52.001Z,6.86
2023-01-01T09:21:20.532Z,6.89
2023-01-01T09:23:48.724Z,6.90
2023-01-01T09:26:16.915Z,6.87
2023-01-01T09:28:45.065Z,6.84
2023-01-01T09:31:13.238Z,6.83
2023-01-01T09:33:41.592Z,6.92
2023-01-01T09:36:36.319Z,6.99
2023-01-01T09:39:04.566Z,7.08
2023-01-01T09:41:54.238Z,7.19
2023-01-01T09:45:18.996Z,7.24
2023-01-01T09:47:51.662Z,7.28
2023-01-01T09:50:37.397Z,7.33
2023-01-01T09:53:15.365Z,7.35
2023-01-01T09:55:55.169Z,7.44
2023-01-01T09:58:36.118Z,7.47
2023-01-01T10:01:29.121Z,7.60
2023-01-01T10:04:24.674Z,7.70
2023-01-01T10:07:20.214Z,7.79
2023-01-01T10:09:57.393Z,7.87
2023-01-01T10:12:53.503Z,7.91
2023-01-01T10:15:33.680Z,7.97
2023-01-01T10:18:11.021Z,8.00
2023-01-01T10:20:46.787Z,8.06
2023-01-01T10:23:31.334Z,8.12
2023-01-01T10:26:08.008Z,8.20
2023-01-01T10:28:42.270Z,8.25
2023-01-01T10:31:28.110Z,8.32
2023-01-01T10:33:56.821Z,8.42
2023-01-01T10:36:26.599Z,8.52
2023-01-01T10:38:54.727Z,8.59
2023-01-01T10:41:22.915Z,8.66
2023-01-01T10:43:51.460Z,8.72
2023-01-01T10:46:31.225Z,8.81
2023-01-01T10:49:12.659Z,8.91
2023-01-01T10:51:48.299Z,8.95
2023-01-01T10:54:37.489Z,9.06
2023-01-01T10:57:27.110Z,9.16
2023-01-01T11:00:08.969Z,9.28
2023-01-01T11:02:37.449Z,9.37
2023-01-01T11:05:22.708Z,9.38
2023-01-01T11:07:51.215Z,9.36
2023-01-01T11:10:26.327Z,9.46
2023-01-01T11:13:10.079Z,9.55
2023-01-01T11:15:42.964Z,9.65
2023-01-01T11:18:26.446Z,9.74
2023-01-01T11:20:59.424Z,9.86
2023-01-01T11:23:35.307Z,9.98
2023-01-01T11:26:12.722Z,10.09
2023-01-01T11:28:41.891Z,10.19
2023-01-01T11:31:13.573Z,10.30
2023-01-01T11:33:53.204Z,10.41
2023-01-01T11:36:33.819Z,10.50
2023-01-01T11:39:26.948Z,10.60
2023-01-01T11:41:58.001Z,10.69
2023-01-01T11:44:46.811Z,10.77
2023-01-01T11:47:39.977Z,10.86
2023-01-01T11:50:23.881Z,10.93
2023-01-01T11:52:53.909Z,11.02
2023-01-01T11:55:45.873Z,11.11
2023-01-01T11:58:56.554Z,11.21
2023-01-01T12:01:49.133Z,11.35
2023-01-01T12:04:38.276Z,11.48
2023-01-01T12:07:24.880Z,11.56
2023-01-01T12:10:34.596Z,11.63
2023-01-01T12:13:12.038Z,11.70
2023-01-01T12:15:47.068Z,11.75
2023-01-01T12:18:31.671Z,11.76
2023-01-01T12:21:20.737Z,11.70
2023-01-01T12:23:49.403Z,11.60
2023-01-01T12:26:46.909Z,11.57
2023-01-01T12:29:33.365Z,11.59
2023-01-01T12:32:04.448Z,11.54
2023-01-01T12:35:05.847Z,11.49
2023-01-01T12:37:55.034Z,11.48
2023-01-01T12:40:42.962Z,11.48
2023-01-01T12:43:22.047Z,11.50
2023-01-01T12:46:01.544Z,11.50
2023-01-01T12:48:48.989Z,11.49
2023-01-01T12:52:14.739Z,11.44
2023-01-01T12:55:33.370Z,11.41
2023-01-01T12:58:27.130Z,11.43
2023-01-01T13:01:11.818Z,11.44
2023-01-01T13:03:56.819Z,11.44
2023-01-01T13:06:38.695Z,11.42
2023-01-01T13:09:23.154Z,11.41
2023-01-01T13:11:58.894Z,11.38
2023-01-01T13:14:27.538Z,11.34
2023-01-01T13:16:57.543Z,11.30
2023-01-01T13:19:34.693Z,11.31
2023-01-01T13:22:44.360Z,11.32
2023-01-01T13:25:12.424Z,11.32
2023-01-01T13:28:05.136Z,11.31
2023-01-01T13:30:36.253Z,11.29
2023-01-01T13:33:36.950Z,11.25
2023-01-01T13:36:14.173Z,11.25
2023-01-01T13:38:50.912Z,11.23
2023-01-01T13:41:38.719Z,11.19
2023-01-01T13:44:06.792Z,11.19
2023-01-01T13:46:44.100Z,11.21
2023-01-01T13:49:34.329Z,11.22
2023-01-01T13:52:43.226Z,11.20
2023-01-01T13:55:26.592Z,11.14
2023-01-01T13:58:12.901Z,11.11
2023-01-01T14:01:11.890Z,11.10
2023-01-01T14:03:47.523Z,11.08
2023-01-01T14:06:26.612Z,11.04
2023-01-01T14:09:10.202Z,11.06
2023-01-01T14:11:38.413Z,11.08
2023-01-01T14:14:25.871Z,11.09
2023-01-01T14:17:02.152Z,11.11
2023-01-01T14:19:30.329Z,11.11
2023-01-01T14:21:58.990Z,11.11
2023-01-01T14:24:28.272Z,11.11
2023-01-01T14:26:56.707Z,11.11
2023-01-01T14:29:32.183Z,11.09
2023-01-01T14:32:13.288Z,11.06
2023-01-01T14:34:42.848Z,11.03
2023-01-01T14:37:25.196Z,10.99
2023-01-01T14:40:26.639Z,10.94
2023-01-01T14:43:17.541Z,10.93
2023-01-01T14:45:46.856Z,10.92
2023-01-01T14:48:20.744Z,10.92
2023-01-01T14:50:52.988Z,10.92
2023-01-01T14:53:30.714Z,10.93
2023-01-01T14:55:59.103Z,10.93
2023-01-01T14:58:29.587Z,10.91
2023-01-01T15:01:26.181Z,10.88
2023-01-01T15:04:04.307Z,10.84
2023-01-01T15:06:33.669Z,10.78
2023-01-01T15:09:02.013Z,10.73
2023-01-01T15:11:30.257Z,10.68
2023-01-01T15:14:02.076Z,10.62
2023-01-01T15:16:37.985Z,10.59
2023-01-01T15:19:18.275Z,10.57
2023-01-01T15:21:47.314Z,10.55
2023-01-01T15:24:26.148Z,10.56
2023-01-01T15:26:54.906Z,10.56
2023-01-01T15:29:38.642Z,10.54
2023-01-01T15:32:11.767Z,10.51
2023-01-01T15:34:47.830Z,10.48
2023-01-01T15:37:59.221Z,10.44
2023-01-01T15:40:27.321Z,10.37
2023-01-01T15:42:55.474Z,10.31
2023-01-01T15:45:28.082Z,10.28
2023-01-01T15:48:05.310Z,10.25
2023-01-01T15:50:53.484Z,10.18
2023-01-01T15:53:27.215Z,10.14
2023-01-01T15:56:03.635Z,10.12
2023-01-01T15:58:42.284Z,10.09
2023-01-01T16:01:14.652Z,10.05
2023-01-01T16:03:46.156Z,10.03
2023-01-01T16:06:18.780Z,9.98
2023-01-01T16:08:47.314Z,9.94
2023-01-01T16:11:15.639Z,9.89
2023-01-01T16:13:43.750Z,9.83
2023-01-01T16:16:27.285Z,9.81
2023-01-01T16:18:56.507Z,9.78
2023-01-01T16:21:28.768Z,9.76
2023-01-01T16:23:59.499Z,9.73
2023-01-01T16:26:27.764Z,9.72
2023-01-01T16:28:55.879Z,9.70
2023-01-01T16:31:30.693Z,9.66
2023-01-01T16:34:00.123Z,9.62
2023-01-01T16:36:29.431Z,9.60
2023-01-01T16:38:59.417Z,9.56
2023-01-01T16:41:30.867Z,9.54
2023-01-01T16:43:59.097Z,9.51
2023-01-01T16:46:28.136Z,9.50
2023-01-01T16:48:56.474Z,9.50
2023-01-01T16:51:29.335Z,9.50
2023-01-01T16:54:00.743Z,9.47
2023-01-01T16:56:29.641Z,9.42
2023-01-01T16:59:02.854Z,9.35
2023-01-01T17:01:31.908Z,9.26
2023-01-01T17:04:00.674Z,9.19
2023-01-01T17:06:28.992Z,9.14
2023-01-01T17:08:59.691Z,9.08
2023-01-01T17:11:27.900Z,9.01
2023-01-01T17:13:58.052Z,8.97
2023-01-01T17:16:36.171Z,8.93
2023-01-01T17:19:16.998Z,8.90
2023-01-01T17:21:48.510Z,8.89
2023-01-01T17:24:18.552Z,8.88
2023-01-01T17:26:54.347Z,8.87
2023-01-01T17:29:22.785Z,8.86
2023-01-01T17:31:51.808Z,8.85
2023-01-01T17:34:20.425Z,8.82
2023-01-01T17:36:49.570Z,8.79
2023-01-01T17:39:17.842Z,8.76
2023-01-01T17:41:46.264Z,8.73
2023-01-01T17:44:14.562Z,8.65
2023-01-01T17:46:44.583Z,8.61
2023-01-01T17:49:12.936Z,8.58
2023-01-01T17:51:41.383Z,8.55
2023-01-01T17:54:13.176Z,8.53
2023-01-01T17:56:42.263Z,8.51
2023-01-01T17:59:10.520Z,8.52
2023-01-01T18:01:38.852Z,8.50
2023-01-01T18:04:09.293Z,8.46
2023-01-01T18:06:42.838Z,8.43
2023-01-01T18:09:13.983Z,8.36
2023-01-01T18:11:43.730Z,8.28
2023-01-01T18:14:13.175Z,8.19
2023-01-01T18:16:44.584Z,8.11
2023-01-01T18:19:13.605Z,8.04
2023-01-01T18:21:43.166Z,8.00
2023-01-01T18:24:15.340Z,7.98
2023-01-01T18:26:43.711Z,8.01
2023-01-01T18:29:12.190Z,8.04
2023-01-01T18:31:40.402Z,8.03
2023-01-01T18:34:10.505Z,7.98
2023-01-01T18:36:39.641Z,7.98
2023-01-01T18:39:26.715Z,7.95
2023-01-01T18:42:39.695Z,7.90
2023-01-01T18:45:18.938Z,7.88
2023-01-01T18:47:47.563Z,7.84
2023-01-01T18:50:27.655Z,7.79
2023-01-01T18:53:19.850Z,7.71
2023-01-01T18:55:57.715Z,7.69
2023-01-01T18:58:25.985Z,7.65
2023-01-01T19:00:54.631Z,7.65
2023-01-01T19:03:28.472Z,7.66
2023-01-01T19:05:59.728Z,7.66
2023-01-01T19:08:29.931Z,7.65
2023-01-01T19:11:03.246Z,7.64
2023-01-01T19:13:40.193Z,7.62
2023-01-01T19:16:11.422Z,7.60
2023-01-01T19:18:45.919Z,7.56
2023-01-01T19:21:14.324Z,7.55
2023-01-01T19:23:58.736Z,7.55
2023-01-01T19:26:32.960Z,7.51
2023-01-01T19:29:23.110Z,7.51
2023-01-01T19:31:57.600Z,7.52
2023-01-01T19:34:26.039Z,7.53
2023-01-01T19:36:54.482Z,7.51
2023-01-01T19:39:22.669Z,7.43
2023-01-01T19:41:52.545Z,7.36
2023-01-01T19:44:24.939Z,7.33
2023-01-01T19:46:53.910Z,7.30
2023-01-01T19:49:23.571Z,7.28
2023-01-01T19:51:51.913Z,7.29
2023-01-01T19:54:20.078Z,7.30
2023-01-01T19:56:50.108Z,7.28
2023-01-01T19:59:19.256Z,7.27
2023-01-01T20:02:03.403Z,7.27
2023-01-01T20:04:35.534Z,7.26
2023-01-01T20:07:03.863Z,7.20
2023-01-01T20:09:33.367Z,7.18
2023-01-01T20:12:01.581Z,7.18
2023-01-01T20:14:29.740Z,7.20
2023-01-01T20:16:57.865Z,7.22
2023-01-01T20:19:25.885Z,7.24
2023-01-01T20:22:12.348Z,7.25
2023-01-01T20:24:45.154Z,7.26
2023-01-01T20:27:23.387Z,7.29
2023-01-01T20:29:51.715Z,7.30
2023-01-01T20:32:21.147Z,7.31
2023-01-01T20:34:49.417Z,7.30
2023-01-01T20:37:35.983Z,7.28
2023-01-01T20:40:09.619Z,7.27
2023-01-01T20:42:37.796Z,7.23
2023-01-01T20:45:08.032Z,7.19
2023-01-01T20:47:37.032Z,7.17
2023-01-01T20:50:05.717Z,7.15
2023-01-01T20:52:33.941Z,7.13
2023-01-01T20:55:02.172Z,7.10
2023-01-01T20:57:30.282Z,7.07
2023-01-01T20:59:58.573Z,7.05
2023-01-01T21:02:26.813Z,7.03
2023-01-01T21:04:55.173Z,7.00
2023-01-01T21:07:23.316Z,6.98
2023-01-01T21:09:51.413Z,6.94
2023-01-01T21:12:19.561Z,6.91
2023-01-01T21:14:47.854Z,6.91
2023-01-01T21:17:23.308Z,6.92
2023-01-01T21:19:55.679Z,6.93
2023-01-01T21:22:23.886Z,6.92
2023-01-01T21:24:54.698Z,6.94
2023-01-01T21:27:34.117Z,6.95
2023-01-01T21:30:02.358Z,6.92
2023-01-01T21:32:42.895Z,6.92
2023-01-01T21:35:26.247Z,6.89
2023-01-01T21:37:58.694Z,6.83
2023-01-01T21:40:52.171Z,6.78
2023-01-01T21:43:33.453Z,6.69
2023-01-01T21:46:07.655Z,6.60
2023-01-01T21:48:56.080Z,6.55
2023-01-01T21:51:28.124Z,6.53
2023-01-01T21:54:14.406Z,6.52
2023-01-01T21:56:51.570Z,6.50
2023-01-01T21:59:31.534Z,6.47
2023-01-01T22:02:08.626Z,6.47
2023-01-01T22:04:48.453Z,6.48
2023-01-01T22:10:36.926Z,6.41
2023-01-01T22:13:14.929Z,6.35
2023-01-01T22:15:44.354Z,6.30
2023-01-01T22:18:12.582Z,6.24
2023-01-01T22:20:44.084Z,6.18
2023-01-01T22:23:42.052Z,6.11
2023-01-01T22:26:21.944Z,6.04
2023-01-01T22:28:58.879Z,5.96
2023-01-01T22:31:33.467Z,5.90
2023-01-01T22:34:04.605Z,5.85
2023-01-01T22:36:36.328Z,5.81
2023-01-01T22:39:15.937Z,5.76
2023-01-01T22:41:50.768Z,5.75
2023-01-01T22:44:19.079Z,5.75
2023-01-01T22:46:47.387Z,5.76
2023-01-01T22:49:36.051Z,5.72
2023-01-01T22:52:04.928Z,5.71
2023-01-01T22:54:33.018Z,5.69
2023-01-01T22:57:01.186Z,5.64
2023-01-01T22:59:29.364Z,5.59
2023-01-01T23:01:57.595Z,5.58
2023-01-01T23:04:25.886Z,5.61
2023-01-01T23:06:54.509Z,5.62
2023-01-01T23:09:24.196Z,5.65
2023-01-01T23:11:55.352Z,5.60
2023-01-01T23:14:43.074Z,5.56
2023-01-01T23:17:11.218Z,5.50
2023-01-01T23:19:39.376Z,5.44
2023-01-01T23:22:07.696Z,5.40
2023-01-01T23:24:36.437Z,5.38
2023-01-01T23:27:04.931Z,5.32
2023-01-01T23:29:33.641Z,5.28
2023-01-01T23:32:03.080Z,5.24
2023-01-01T23:34:31.383Z,5.22
2023-01-01T23:36:59.718Z,5.19
2023-01-01T23:39:27.828Z,5.19
2023-01-01T23:41:55.931Z,5.18
2023-01-01T23:44:24.056Z,5.17
2023-01-01T23:46:52.471Z,5.19
2023-01-01T23:49:22.670Z,5.21
2023-01-01T23:51:51.367Z,5.23
2023-01-01T23:54:19.574Z,5.23
2023-01-01T23:56:47.934Z,5.19
2023-01-01T23:59:16.107Z,5.17
